KBML

Berlin Regional Airport

Berlin, New Hampshire, USA
METAR KBML 211252Z AUTO 00000KT 6SM BR CLR 02/02 A3009 RMK AO2 SLP201 T00170017
Observed Flight Rules
Feb-21 @ 12:52 UTC (26 minutes ago) Visual Flight Rules
Wind Visibility Clouds Conditions
Calm 6 miles
  • Clear skies
  • Mist
Temperatures Readings
Current 2°C / 36°F
Dewpoint 2°C / 36°F
Humidity 100%
Altimeter 30.09" Hg
Pressure 1020.1 hPa
Elevation 345
METAR KBML 211252Z AUTO 00000KT 6SM BR CLR 02/02 A3009 RMK AO2 SLP201 T00170017
Observed Flight Rules
Feb-21 @ 12:52 UTC
(26 minutes ago)
VFR
Wind Visibility
Calm 6 miles
Clouds
  • Clear skies
Conditions
  • Mist
Temperature Dewpoint
2°C / 36°F 2°C / 36°F
Humidity Altimeter Pressure
100% 30.09" Hg 1020.1 hPa